createdAt,value
2023-03-19T00:06:16.986Z,2.4
2023-03-19T00:12:39.952Z,9.4
2023-03-19T00:19:00.181Z,9.4
2023-03-19T00:25:22.964Z,3
2023-03-19T00:31:43.088Z,3
2023-03-19T00:38:05.961Z,5.2
2023-03-19T00:44:25.973Z,5.2
2023-03-19T00:50:48.980Z,5.4
2023-03-19T00:57:09.015Z,5.4
2023-03-19T01:03:32.082Z,1.1
2023-03-19T01:09:51.924Z,1.1
2023-03-19T01:16:15.060Z,2.7
2023-03-19T01:22:35.913Z,2.7
2023-03-19T01:28:57.978Z,5.7
2023-03-19T01:35:17.980Z,5.7
2023-03-19T01:41:40.958Z,7.8
2023-03-19T01:48:00.991Z,7.8
2023-03-19T01:54:24.024Z,29.2
2023-03-19T02:00:43.989Z,29.2
2023-03-19T02:07:06.950Z,2.6
2023-03-19T02:13:27.054Z,2.6
2023-03-19T02:19:50.070Z,2.4
2023-03-19T02:26:10.041Z,2.4
2023-03-19T02:32:32.932Z,1.3
2023-03-19T02:38:52.936Z,1.3
2023-03-19T02:45:15.939Z,2.2
2023-03-19T02:51:36.021Z,2.2
2023-03-19T02:57:58.913Z,2.6
2023-03-19T03:04:18.987Z,2.6
2023-03-19T03:10:41.942Z,2.2
2023-03-19T03:17:01.993Z,2.2
2023-03-19T03:23:24.972Z,6.1
2023-03-19T03:29:45.281Z,6.1
2023-03-19T03:36:07.988Z,2.1
2023-03-19T03:42:27.994Z,2.1
2023-03-19T03:48:51.000Z,2.3
2023-03-19T03:55:11.085Z,2.3
2023-03-19T04:01:33.958Z,3.8
2023-03-19T04:07:54.042Z,3.8
2023-03-19T04:14:17.055Z,1.6
2023-03-19T04:20:36.961Z,1.6
2023-03-19T04:26:59.985Z,3.6
2023-03-19T04:43:42.594Z,3.4
2023-03-19T04:50:05.410Z,8.8
2023-03-19T04:56:24.932Z,8.8
2023-03-19T05:02:48.055Z,8.8
2023-03-19T05:09:07.898Z,8.8
2023-03-19T05:15:30.978Z,26.5
2023-03-19T05:21:50.993Z,26.5
2023-03-19T05:28:14.019Z,1.5
2023-03-19T05:34:33.981Z,1.5
2023-03-19T05:40:56.958Z,1.6
2023-03-19T05:47:16.991Z,1.6
2023-03-19T05:53:39.923Z,4.4
2023-03-19T05:59:59.934Z,4.4
2023-03-19T06:06:23.020Z,8.6
2023-03-19T06:12:43.043Z,8.6
2023-03-19T06:19:05.934Z,5.1
2023-03-19T06:25:25.957Z,5.1
2023-03-19T06:31:48.995Z,4.8
2023-03-19T06:38:09.014Z,4.8
2023-03-19T06:44:31.964Z,1.8
2023-03-19T06:50:51.902Z,1.8
2023-03-19T06:57:15.058Z,1.5
2023-03-19T07:03:34.970Z,1.5
2023-03-19T07:09:58.081Z,4
2023-03-19T07:16:18.170Z,4
2023-03-19T07:22:40.964Z,2.1
2023-03-19T07:29:00.990Z,2.1
2023-03-19T07:35:23.986Z,2.1
2023-03-19T07:41:43.963Z,2.1
2023-03-19T07:48:06.939Z,1.9
2023-03-19T07:54:26.960Z,1.9
2023-03-19T08:00:49.982Z,6.8
2023-03-19T08:07:09.898Z,6.8
2023-03-19T08:13:33.336Z,1.3
2023-03-19T08:19:52.928Z,1.3
2023-03-19T08:26:15.979Z,6.2
2023-03-19T08:32:35.981Z,6.2
2023-03-19T08:38:59.026Z,1.5
2023-03-19T08:45:19.022Z,1.5
2023-03-19T08:51:41.961Z,2.5
2023-03-19T08:58:01.955Z,2.5
2023-03-19T09:04:24.944Z,2.2
2023-03-19T09:10:45.122Z,2.2
2023-03-19T09:17:07.950Z,1.3
2023-03-19T09:23:27.922Z,1.3
2023-03-19T09:29:51.133Z,1
2023-03-19T09:36:10.977Z,1
2023-03-19T09:42:33.923Z,2.1
2023-03-19T09:48:53.961Z,2.1
2023-03-19T10:04:47.899Z,2.2
2023-03-19T10:11:07.952Z,2.2
2023-03-19T10:17:30.912Z,6.9
2023-03-19T10:23:51.030Z,6.9
2023-03-19T10:30:13.928Z,0.9
2023-03-19T10:36:33.955Z,0.9
2023-03-19T10:42:57.130Z,3.2
2023-03-19T10:49:16.947Z,3.2
2023-03-19T10:55:40.002Z,4.7
2023-03-19T11:01:59.988Z,4.7
2023-03-19T11:08:35.119Z,1.4
2023-03-19T11:14:43.013Z,1.4
2023-03-19T11:21:05.921Z,23.6
2023-03-19T11:27:25.934Z,23.6
2023-03-19T11:33:48.926Z,1.2
2023-03-19T11:40:09.011Z,1.2
2023-03-19T11:46:32.027Z,1.5
2023-03-19T11:52:51.905Z,1.5
2023-03-19T11:59:15.019Z,2.4
2023-03-19T12:05:35.145Z,2.4
2023-03-19T12:11:57.933Z,2.5
2023-03-19T12:18:17.988Z,2.5
2023-03-19T12:24:40.974Z,1.6
2023-03-19T12:31:01.009Z,1.6
2023-03-19T12:37:23.935Z,8.2
2023-03-19T12:43:43.915Z,8.2
2023-03-19T12:50:06.949Z,0.2
2023-03-19T12:56:26.932Z,0.2
2023-03-19T13:02:50.069Z,0.6
2023-03-19T13:09:09.899Z,0.6
2023-03-19T13:15:32.954Z,0.4
2023-03-19T13:21:52.984Z,0.4
2023-03-19T13:28:15.912Z,1
2023-03-19T13:34:35.986Z,1
2023-03-19T13:40:58.965Z,0.6
2023-03-19T13:47:18.949Z,0.6
2023-03-19T13:53:41.983Z,0.3
2023-03-19T14:00:01.916Z,0.3
2023-03-19T14:06:24.966Z,1.8
2023-03-19T14:12:45.029Z,1.8
2023-03-19T14:19:08.717Z,1
2023-03-19T14:25:28.015Z,1
2023-03-19T14:31:50.992Z,0.4
2023-03-19T14:38:10.982Z,0.4
2023-03-19T14:44:33.975Z,0.6
2023-03-19T14:50:53.919Z,0.6
2023-03-19T14:57:16.971Z,1.7
2023-03-19T15:03:36.914Z,1.7
2023-03-19T15:10:00.003Z,0.1
2023-03-19T15:16:20.005Z,0.1
2023-03-19T15:22:42.941Z,0.2
2023-03-19T15:45:12.472Z,0.7
2023-03-19T15:51:31.927Z,0.7
2023-03-19T15:57:54.926Z,0.7
2023-03-19T16:04:14.917Z,0.7
2023-03-19T16:10:38.027Z,0.6
2023-03-19T16:16:57.958Z,0.6
2023-03-19T16:23:20.943Z,0.1
2023-03-19T16:29:40.995Z,0.1
2023-03-19T16:36:04.013Z,1.5
2023-03-19T16:42:24.009Z,1.5
2023-03-19T16:48:46.981Z,0.5
2023-03-19T16:55:06.923Z,0.5
2023-03-19T17:01:30.101Z,2.5
2023-03-19T17:07:49.962Z,2.5
2023-03-19T17:14:12.941Z,1.2
2023-03-19T17:20:33.014Z,1.2
2023-03-19T17:26:55.931Z,2.4
2023-03-19T17:33:16.045Z,2.4
2023-03-19T17:39:38.992Z,3.4
2023-03-19T17:45:58.931Z,3.4
2023-03-19T17:52:22.049Z,1.6
2023-03-19T17:58:41.976Z,1.6
2023-03-19T18:05:05.024Z,4.9
2023-03-19T18:11:25.038Z,4.9
2023-03-19T18:17:47.977Z,1.7
2023-03-19T18:24:08.060Z,1.7
2023-03-19T18:30:30.972Z,4.2
2023-03-19T18:36:50.958Z,4.2
2023-03-19T18:43:16.029Z,5.3
2023-03-19T18:49:33.956Z,5.3
2023-03-19T18:55:57.236Z,3.6
2023-03-19T19:02:16.904Z,3.6
2023-03-19T19:08:39.902Z,7.3
2023-03-19T19:15:00.002Z,7.3
2023-03-19T19:21:23.045Z,6.5
2023-03-19T19:27:43.005Z,6.5
2023-03-19T19:34:05.969Z,7
2023-03-19T19:40:25.948Z,7
2023-03-19T19:46:48.952Z,13.3
2023-03-19T19:53:09.014Z,13.3
2023-03-19T19:59:31.990Z,8.3
2023-03-19T20:05:51.915Z,8.3
2023-03-19T20:12:15.007Z,11.1
2023-03-19T20:18:35.020Z,11.1
2023-03-19T20:24:58.003Z,10.7
2023-03-19T20:31:18.130Z,10.7
2023-03-19T20:37:41.043Z,15.7
2023-03-19T20:44:00.901Z,15.7
2023-03-19T21:07:43.826Z,22.6
2023-03-19T21:14:06.910Z,22.6
2023-03-19T21:20:26.920Z,22.6
2023-03-19T21:26:49.960Z,7.1
2023-03-19T21:33:09.983Z,7.1
2023-03-19T21:39:32.958Z,13.8
2023-03-19T21:45:52.944Z,13.8
2023-03-19T21:52:15.919Z,14.5
2023-03-19T21:58:35.978Z,14.5
2023-03-19T22:04:58.981Z,39.5
2023-03-19T22:11:19.017Z,39.5
2023-03-19T22:17:41.924Z,20.5
2023-03-19T22:24:01.937Z,20.5
2023-03-19T22:30:24.944Z,21
2023-03-19T22:36:44.916Z,21
2023-03-19T22:43:07.997Z,21.3
2023-03-19T22:49:27.929Z,21.3
2023-03-19T22:55:50.933Z,33
2023-03-19T23:02:10.975Z,33
2023-03-19T23:25:08.964Z,49.6
2023-03-19T23:31:28.908Z,49.6
2023-03-19T23:37:51.935Z,49.6
2023-03-19T23:44:12.053Z,49.6
2023-03-19T23:50:35.006Z,12.4
2023-03-19T23:56:54.966Z,12.4
